createdAt,value
2023-03-08T00:01:22.669Z,1.20
2023-03-08T00:03:53.523Z,1.60
2023-03-08T00:06:22.488Z,1.60
2023-03-08T00:08:50.808Z,1.30
2023-03-08T00:11:19.173Z,1.20
2023-03-08T00:13:48.864Z,1.30
2023-03-08T00:16:17.254Z,1.48
2023-03-08T00:18:45.674Z,1.48
2023-03-08T00:21:16.863Z,1.50
2023-03-08T00:23:46.390Z,1.95
2023-03-08T00:26:15.471Z,2.15
2023-03-08T00:28:43.896Z,1.35
2023-03-08T00:31:15.073Z,1.58
2023-03-08T00:33:43.619Z,1.48
2023-03-08T00:36:18.015Z,2.30
2023-03-08T00:38:47.338Z,1.90
2023-03-08T00:41:16.152Z,2.08
2023-03-08T00:43:45.534Z,2.17
2023-03-08T00:46:15.474Z,1.75
2023-03-08T00:48:44.473Z,1.85
2023-03-08T00:51:15.543Z,1.58
2023-03-08T00:53:44.040Z,3.03
2023-03-08T00:56:12.954Z,2.20
2023-03-08T00:58:42.949Z,2.38
2023-03-08T01:01:17.482Z,2.88
2023-03-08T01:03:47.776Z,3.22
2023-03-08T01:06:17.284Z,2.67
2023-03-08T01:08:46.080Z,2.47
2023-03-08T01:11:17.726Z,3.17
2023-03-08T01:13:47.599Z,2.17
2023-03-08T01:16:19.304Z,4.03
2023-03-08T01:18:48.121Z,4.03
2023-03-08T01:21:16.994Z,3.78
2023-03-08T01:23:45.582Z,4.03
2023-03-08T01:26:15.737Z,4.25
2023-03-08T01:28:44.738Z,4.05
2023-03-08T01:31:15.056Z,3.30
2023-03-08T01:33:45.173Z,4.60
2023-03-08T01:36:16.081Z,3.13
2023-03-08T01:38:46.495Z,3.33
2023-03-08T01:41:18.538Z,2.42
2023-03-08T01:43:47.822Z,3.42
2023-03-08T01:46:25.725Z,3.80
2023-03-08T01:49:09.328Z,4.70
2023-03-08T01:51:43.608Z,3.63
2023-03-08T01:54:15.380Z,3.88
2023-03-08T01:56:45.405Z,3.08
2023-03-08T01:59:15.510Z,4.05
2023-03-08T02:01:44.108Z,5.05
2023-03-08T02:04:14.010Z,3.95
2023-03-08T02:06:44.005Z,3.63
2023-03-08T02:09:13.309Z,4.25
2023-03-08T02:11:43.491Z,3.67
2023-03-08T02:14:12.044Z,2.35
2023-03-08T02:16:44.353Z,2.80
2023-03-08T02:19:21.600Z,3.95
2023-03-08T02:21:49.907Z,5.10
2023-03-08T02:24:22.132Z,4.88
2023-03-08T02:26:52.401Z,4.55
2023-03-08T02:29:20.906Z,4.95
2023-03-08T02:31:49.227Z,3.00
2023-03-08T02:34:18.261Z,4.32
2023-03-08T02:36:46.632Z,4.28
2023-03-08T02:39:15.846Z,2.58
2023-03-08T02:41:45.568Z,3.45
2023-03-08T02:44:15.508Z,3.65
2023-03-08T02:46:43.880Z,3.42
2023-03-08T02:49:13.276Z,3.17
2023-03-08T02:51:41.595Z,3.47
2023-03-08T02:54:10.320Z,2.70
2023-03-08T02:56:38.572Z,3.15
2023-03-08T02:59:09.590Z,3.17
2023-03-08T03:01:38.114Z,2.85
2023-03-08T03:04:07.170Z,2.85
2023-03-08T03:06:36.396Z,2.05
2023-03-08T03:09:08.196Z,1.55
2023-03-08T03:11:37.223Z,2.38
2023-03-08T03:14:05.887Z,1.55
2023-03-08T03:16:40.658Z,2.33
2023-03-08T03:19:11.051Z,2.58
2023-03-08T03:21:40.724Z,2.20
2023-03-08T03:24:09.491Z,1.58
2023-03-08T03:26:45.852Z,2.05
2023-03-08T03:29:14.277Z,1.77
2023-03-08T03:31:46.074Z,2.38
2023-03-08T03:34:15.808Z,1.90
2023-03-08T03:36:45.749Z,1.92
2023-03-08T03:39:14.922Z,2.10
2023-03-08T03:41:44.435Z,1.92
2023-03-08T03:44:15.771Z,1.95
2023-03-08T03:46:47.950Z,1.63
2023-03-08T03:49:21.127Z,2.10
2023-03-08T03:51:49.350Z,1.67
2023-03-08T03:54:25.340Z,2.45
2023-03-08T03:56:58.196Z,2.20
2023-03-08T03:59:30.323Z,1.75
2023-03-08T04:02:00.344Z,1.98
2023-03-08T04:04:40.278Z,2.13
2023-03-08T04:07:10.341Z,1.98
2023-03-08T04:09:42.991Z,2.05
2023-03-08T04:12:15.764Z,2.90
2023-03-08T04:14:45.479Z,2.75
2023-03-08T04:17:16.664Z,2.47
2023-03-08T04:19:50.617Z,2.25
2023-03-08T04:22:20.430Z,2.13
2023-03-08T04:24:55.251Z,2.28
2023-03-08T04:27:30.714Z,1.67
2023-03-08T04:29:59.107Z,1.70
2023-03-08T04:32:32.441Z,1.52
2023-03-08T04:35:00.825Z,1.42
2023-03-08T04:37:31.680Z,1.83
2023-03-08T04:40:09.403Z,1.75
2023-03-08T04:42:44.126Z,2.17
2023-03-08T04:45:15.205Z,2.00
2023-03-08T04:47:45.934Z,2.33
2023-03-08T04:50:15.628Z,1.80
2023-03-08T04:52:45.000Z,1.40
2023-03-08T04:55:13.679Z,2.42
2023-03-08T04:57:42.218Z,1.95
2023-03-08T05:00:12.037Z,1.73
2023-03-08T05:02:42.866Z,1.77
2023-03-08T05:05:17.192Z,1.83
2023-03-08T05:07:46.282Z,2.35
2023-03-08T05:10:14.661Z,1.42
2023-03-08T05:12:43.512Z,2.08
2023-03-08T05:15:12.724Z,3.15
2023-03-08T05:17:41.120Z,1.70
2023-03-08T05:20:10.692Z,2.33
2023-03-08T05:22:57.698Z,2.53
2023-03-08T05:25:32.322Z,2.30
2023-03-08T05:28:01.975Z,3.00
2023-03-08T05:30:30.355Z,2.35
2023-03-08T05:32:59.021Z,2.58
2023-03-08T05:35:27.566Z,2.13
2023-03-08T05:37:58.890Z,3.63
2023-03-08T05:40:28.198Z,2.30
2023-03-08T05:42:57.623Z,2.75
2023-03-08T05:45:27.723Z,2.83
2023-03-08T05:47:57.257Z,3.20
2023-03-08T05:50:26.222Z,4.03
2023-03-08T05:52:55.640Z,3.38
2023-03-08T05:55:29.721Z,3.03
2023-03-08T05:57:59.753Z,3.03
2023-03-08T06:00:29.069Z,3.03
2023-03-08T06:03:04.023Z,3.70
2023-03-08T06:05:35.508Z,3.75
2023-03-08T06:08:04.603Z,3.53
2023-03-08T06:10:34.369Z,4.35
2023-03-08T06:13:03.517Z,3.70
2023-03-08T06:15:32.077Z,4.05
2023-03-08T06:18:01.614Z,3.90
2023-03-08T06:20:30.296Z,4.28
2023-03-08T06:22:58.957Z,4.85
2023-03-08T06:25:27.378Z,3.08
2023-03-08T06:27:57.752Z,4.45
2023-03-08T06:30:34.793Z,4.28
2023-03-08T06:33:05.476Z,4.45
2023-03-08T06:35:33.933Z,4.72
2023-03-08T06:38:03.987Z,4.13
2023-03-08T06:40:33.122Z,3.55
2023-03-08T06:43:02.917Z,5.15
2023-03-08T06:45:31.268Z,3.92
2023-03-08T06:47:59.580Z,5.25
2023-03-08T06:50:29.918Z,3.58
2023-03-08T06:52:58.238Z,4.05
2023-03-08T06:55:41.576Z,3.58
2023-03-08T06:58:11.363Z,4.15
2023-03-08T07:00:39.669Z,3.85
2023-03-08T07:03:08.382Z,5.70
2023-03-08T07:05:36.748Z,4.78
2023-03-08T07:08:05.360Z,4.40
2023-03-08T07:10:34.295Z,5.35
2023-03-08T07:13:02.586Z,3.88
2023-03-08T07:15:32.414Z,4.35
2023-03-08T07:18:00.942Z,3.90
2023-03-08T07:20:29.378Z,3.65
2023-03-08T07:22:59.032Z,3.67
2023-03-08T07:25:27.373Z,5.05
2023-03-08T07:27:55.921Z,3.45
2023-03-08T07:30:24.633Z,3.20
2023-03-08T07:32:55.693Z,3.25
2023-03-08T07:35:24.082Z,4.40
2023-03-08T07:37:52.389Z,3.78
2023-03-08T07:40:20.918Z,4.57
2023-03-08T07:42:49.727Z,3.35
2023-03-08T07:45:30.043Z,3.80
2023-03-08T07:47:59.768Z,4.18
2023-03-08T07:50:28.819Z,4.93
2023-03-08T07:52:57.078Z,3.22
2023-03-08T07:55:26.014Z,3.85
2023-03-08T07:57:54.272Z,3.33
2023-03-08T08:00:23.212Z,3.60
2023-03-08T08:02:54.062Z,3.08
2023-03-08T08:05:24.427Z,2.47
2023-03-08T08:07:52.729Z,3.60
2023-03-08T08:10:21.121Z,3.30
2023-03-08T08:12:49.401Z,3.30
2023-03-08T08:15:19.192Z,2.92
2023-03-08T08:17:47.760Z,3.50
2023-03-08T08:20:16.424Z,3.20
2023-03-08T08:22:46.037Z,3.45
2023-03-08T08:25:14.398Z,3.22
2023-03-08T08:27:42.715Z,3.60
2023-03-08T08:30:14.046Z,3.92
2023-03-08T08:32:42.456Z,3.50
2023-03-08T08:35:11.520Z,3.67
2023-03-08T08:37:39.799Z,4.00
2023-03-08T08:40:13.668Z,3.75
2023-03-08T08:42:42.027Z,3.78
2023-03-08T08:45:11.667Z,3.53
2023-03-08T08:47:39.904Z,2.75
2023-03-08T08:50:09.167Z,3.95
2023-03-08T08:52:37.412Z,4.03
2023-03-08T08:55:06.652Z,3.33
2023-03-08T08:57:37.305Z,4.13
2023-03-08T09:00:08.261Z,3.13
2023-03-08T09:02:36.559Z,4.10
2023-03-08T09:05:04.963Z,3.75
2023-03-08T09:07:33.233Z,4.72
2023-03-08T09:10:01.796Z,4.18
2023-03-08T09:12:31.989Z,4.63
2023-03-08T09:15:01.720Z,4.68
2023-03-08T09:17:30.590Z,3.88
2023-03-08T09:19:59.640Z,3.35
2023-03-08T09:22:27.921Z,4.38
2023-03-08T09:24:56.314Z,4.65
2023-03-08T09:27:24.722Z,4.03
2023-03-08T09:29:53.009Z,3.53
2023-03-08T09:32:22.916Z,3.67
2023-03-08T09:34:51.925Z,3.22
2023-03-08T09:37:20.960Z,4.07
2023-03-08T09:39:52.545Z,3.28
2023-03-08T09:42:24.260Z,3.95
2023-03-08T09:45:07.939Z,3.05
2023-03-08T09:47:48.892Z,3.53
2023-03-08T09:50:34.362Z,3.53
2023-03-08T09:53:08.991Z,3.20
2023-03-08T09:55:45.332Z,3.25
2023-03-08T09:58:22.010Z,5.20
2023-03-08T10:00:50.424Z,3.80
2023-03-08T10:03:46.497Z,3.55
2023-03-08T10:06:20.589Z,3.92
2023-03-08T10:08:57.231Z,4.40
2023-03-08T10:11:32.326Z,4.28
2023-03-08T10:14:07.530Z,4.97
2023-03-08T10:16:41.940Z,4.00
2023-03-08T10:19:18.277Z,5.63
2023-03-08T10:21:47.812Z,5.22
2023-03-08T10:24:19.263Z,4.57
2023-03-08T10:26:53.085Z,4.75
2023-03-08T10:29:22.034Z,3.72
2023-03-08T10:31:53.384Z,5.03
2023-03-08T10:34:26.836Z,3.80
2023-03-08T10:37:00.106Z,4.50
2023-03-08T10:39:29.282Z,4.82
2023-03-08T10:41:59.394Z,4.82
2023-03-08T10:44:34.027Z,3.55
2023-03-08T10:47:05.435Z,5.25
2023-03-08T10:49:35.082Z,5.03
2023-03-08T10:52:03.347Z,4.63
2023-03-08T10:54:31.779Z,4.25
2023-03-08T10:57:01.517Z,4.78
2023-03-08T10:59:33.316Z,5.22
2023-03-08T11:02:10.006Z,4.00
2023-03-08T11:04:39.853Z,3.72
2023-03-08T11:07:12.751Z,3.67
2023-03-08T11:09:41.157Z,3.90
2023-03-08T11:12:24.089Z,3.38
2023-03-08T11:14:52.927Z,5.28
2023-03-08T11:17:26.304Z,5.15
2023-03-08T11:20:11.587Z,4.65
2023-03-08T11:23:06.388Z,4.97
2023-03-08T11:25:42.796Z,4.93
2023-03-08T11:28:33.522Z,4.82
2023-03-08T11:31:15.196Z,4.30
2023-03-08T11:34:22.026Z,4.55
2023-03-08T11:39:28.367Z,3.90
2023-03-08T11:42:01.551Z,5.10
2023-03-08T11:44:44.250Z,3.80
2023-03-08T11:47:38.856Z,5.53
2023-03-08T11:50:13.968Z,5.78
2023-03-08T11:52:52.487Z,6.38
2023-03-08T11:55:43.301Z,4.88
2023-03-08T11:58:20.421Z,5.32
2023-03-08T12:00:51.644Z,5.10
2023-03-08T12:03:22.579Z,4.38
2023-03-08T12:05:53.753Z,4.90
2023-03-08T12:08:26.283Z,4.75
2023-03-08T12:10:58.073Z,5.35
2023-03-08T12:13:31.671Z,5.47
2023-03-08T12:16:06.151Z,5.88
2023-03-08T12:18:40.350Z,4.97
2023-03-08T12:21:19.719Z,5.40
2023-03-08T12:23:58.514Z,5.35
2023-03-08T12:26:30.956Z,4.68
2023-03-08T12:29:04.566Z,4.75
2023-03-08T12:31:36.783Z,5.35
2023-03-08T12:34:14.767Z,4.30
2023-03-08T12:36:45.341Z,4.07
2023-03-08T12:39:28.886Z,4.55
2023-03-08T12:42:06.852Z,5.43
2023-03-08T12:44:35.368Z,5.88
2023-03-08T12:47:20.943Z,5.97
2023-03-08T12:49:52.527Z,5.50
2023-03-08T12:52:32.050Z,5.05
2023-03-08T12:55:05.899Z,5.30
2023-03-08T12:57:38.088Z,4.78
2023-03-08T13:00:24.462Z,5.32
2023-03-08T13:03:01.870Z,4.75
2023-03-08T13:05:33.158Z,5.80
2023-03-08T13:08:21.705Z,5.85
2023-03-08T13:11:10.786Z,4.53
2023-03-08T13:13:50.184Z,5.55
2023-03-08T13:16:33.488Z,4.57
2023-03-08T13:19:22.302Z,6.35
2023-03-08T13:21:55.260Z,5.68
2023-03-08T13:24:37.022Z,6.28
2023-03-08T13:27:21.504Z,5.22
2023-03-08T13:29:50.445Z,5.30
2023-03-08T13:32:20.539Z,4.40
2023-03-08T13:35:00.139Z,5.30
2023-03-08T13:37:30.522Z,6.00
2023-03-08T13:40:00.178Z,6.15
2023-03-08T13:42:30.727Z,6.20
2023-03-08T13:45:09.434Z,5.35
2023-03-08T13:47:42.707Z,6.60
2023-03-08T13:50:19.866Z,5.95
2023-03-08T13:52:48.503Z,6.13
2023-03-08T13:55:21.922Z,6.22
2023-03-08T13:57:55.342Z,6.28
2023-03-08T14:00:33.741Z,6.43
2023-03-08T14:03:06.584Z,6.25
2023-03-08T14:05:43.099Z,6.38
2023-03-08T14:08:20.679Z,6.57
2023-03-08T14:10:53.025Z,5.43
2023-03-08T14:13:27.496Z,8.15
2023-03-08T14:15:58.181Z,6.10
2023-03-08T14:18:29.879Z,6.05
2023-03-08T14:21:06.695Z,5.65
2023-03-08T14:23:40.180Z,6.15
2023-03-08T14:26:24.206Z,7.35
2023-03-08T14:29:06.013Z,6.20
2023-03-08T14:31:34.404Z,4.70
2023-03-08T14:34:04.634Z,6.22
2023-03-08T14:36:35.238Z,6.03
2023-03-08T14:39:03.710Z,6.25
2023-03-08T14:41:34.762Z,7.22
2023-03-08T14:44:06.052Z,7.00
2023-03-08T14:46:34.978Z,7.10
2023-03-08T14:49:04.908Z,6.72
2023-03-08T14:51:41.845Z,6.72
2023-03-08T14:54:24.032Z,6.82
2023-03-08T14:56:53.009Z,6.70
2023-03-08T14:59:27.851Z,7.80
2023-03-08T15:04:26.651Z,6.82
2023-03-08T15:06:56.267Z,6.50
2023-03-08T15:09:26.231Z,6.45
2023-03-08T15:11:58.726Z,8.10
2023-03-08T15:14:30.535Z,6.65
2023-03-08T15:16:59.173Z,7.93
2023-03-08T15:19:27.643Z,6.50
2023-03-08T15:21:56.644Z,6.45
2023-03-08T15:24:25.018Z,6.47
2023-03-08T15:26:55.817Z,7.40
2023-03-08T15:29:31.510Z,9.60
2023-03-08T15:32:01.627Z,6.82
2023-03-08T15:34:29.875Z,6.88
2023-03-08T15:36:58.162Z,7.28
2023-03-08T15:39:27.598Z,7.03
2023-03-08T15:41:55.858Z,8.07
2023-03-08T15:44:24.080Z,8.68
2023-03-08T15:46:53.842Z,8.60
2023-03-08T15:49:22.080Z,7.93
2023-03-08T15:51:50.609Z,6.97
2023-03-08T15:54:18.849Z,8.35
2023-03-08T15:56:47.139Z,6.78
2023-03-08T15:59:15.353Z,6.80
2023-03-08T16:01:43.591Z,6.82
2023-03-08T16:04:13.271Z,6.40
2023-03-08T16:06:43.574Z,7.72
2023-03-08T16:09:11.815Z,7.25
2023-03-08T16:11:40.104Z,6.95
2023-03-08T16:14:08.337Z,6.93
2023-03-08T16:16:45.228Z,7.50
2023-03-08T16:19:15.531Z,7.43
2023-03-08T16:21:43.937Z,6.95
2023-03-08T16:24:12.580Z,7.82
2023-03-08T16:26:40.888Z,7.10
2023-03-08T16:29:09.377Z,9.10
2023-03-08T16:31:37.708Z,7.97
2023-03-08T16:34:06.807Z,8.75
2023-03-08T16:36:36.415Z,7.18
2023-03-08T16:39:05.676Z,7.18
2023-03-08T16:41:35.182Z,8.77
2023-03-08T16:44:04.318Z,8.93
2023-03-08T16:46:32.879Z,8.82
2023-03-08T16:49:01.786Z,8.40
2023-03-08T16:51:31.228Z,9.45
2023-03-08T16:54:01.269Z,10.45
2023-03-08T16:56:30.894Z,9.43
2023-03-08T16:59:01.213Z,6.90
2023-03-08T17:01:29.703Z,9.10
2023-03-08T17:03:58.639Z,8.15
2023-03-08T17:06:29.325Z,8.02
2023-03-08T17:09:00.142Z,9.88
2023-03-08T17:11:30.302Z,9.25
2023-03-08T17:14:01.481Z,9.77
2023-03-08T17:16:31.875Z,10.25
2023-03-08T17:19:01.160Z,10.00
2023-03-08T17:21:31.288Z,9.95
2023-03-08T17:24:01.437Z,9.75
2023-03-08T17:26:29.756Z,9.50
2023-03-08T17:28:58.042Z,10.10
2023-03-08T17:31:27.011Z,9.55
2023-03-08T17:33:55.670Z,11.52
2023-03-08T17:36:23.968Z,10.10
2023-03-08T17:38:54.346Z,10.32
2023-03-08T17:41:24.627Z,9.30
2023-03-08T17:43:56.021Z,9.90
2023-03-08T17:46:27.208Z,8.65
2023-03-08T17:48:56.899Z,8.02
2023-03-08T17:51:28.204Z,9.73
2023-03-08T17:53:58.390Z,8.55
2023-03-08T17:56:30.302Z,6.80
2023-03-08T17:58:59.480Z,9.05
2023-03-08T18:01:29.774Z,9.68
2023-03-08T18:03:59.055Z,9.57
2023-03-08T18:06:30.387Z,10.00
2023-03-08T18:08:59.717Z,9.82
2023-03-08T18:11:29.555Z,8.30
2023-03-08T18:13:57.848Z,8.55
2023-03-08T18:16:26.528Z,9.88
2023-03-08T18:18:54.886Z,9.85
2023-03-08T18:21:23.344Z,11.15
2023-03-08T18:23:54.959Z,9.95
2023-03-08T18:26:23.515Z,10.82
2023-03-08T18:28:53.234Z,11.85
2023-03-08T18:31:26.056Z,11.82
2023-03-08T18:33:55.466Z,12.25
2023-03-08T18:36:24.855Z,9.65
2023-03-08T18:38:53.276Z,9.40
2023-03-08T18:41:23.723Z,12.43
2023-03-08T18:43:54.661Z,11.65
2023-03-08T18:46:28.463Z,11.30
2023-03-08T18:48:56.945Z,11.18
2023-03-08T18:51:25.398Z,11.82
2023-03-08T18:53:56.098Z,10.05
2023-03-08T18:56:25.890Z,11.52
2023-03-08T18:58:58.722Z,10.00
2023-03-08T19:01:29.283Z,11.10
2023-03-08T19:03:59.096Z,10.57
2023-03-08T19:06:27.727Z,13.85
2023-03-08T19:08:56.789Z,10.32
2023-03-08T19:11:28.578Z,11.27
2023-03-08T19:14:00.538Z,12.07
2023-03-08T19:16:31.559Z,10.80
2023-03-08T19:19:02.474Z,10.30
2023-03-08T19:21:32.611Z,12.10
2023-03-08T19:24:02.048Z,8.77
2023-03-08T19:26:37.889Z,8.85
2023-03-08T19:29:10.589Z,9.18
2023-03-08T19:31:41.603Z,9.80
2023-03-08T19:34:10.541Z,8.93
2023-03-08T19:36:39.421Z,9.98
2023-03-08T19:39:10.956Z,9.95
2023-03-08T19:41:39.370Z,9.13
2023-03-08T19:44:10.332Z,10.68
2023-03-08T19:46:39.801Z,10.55
2023-03-08T19:49:12.601Z,9.80
2023-03-08T19:51:41.041Z,10.43
2023-03-08T19:54:10.055Z,9.63
2023-03-08T19:56:38.345Z,9.27
2023-03-08T19:59:08.152Z,9.88
2023-03-08T20:01:37.958Z,8.93
2023-03-08T20:04:06.872Z,8.18
2023-03-08T20:06:37.388Z,9.43
2023-03-08T20:09:07.419Z,9.15
2023-03-08T20:11:36.123Z,8.93
2023-03-08T20:14:04.835Z,9.25
2023-03-08T20:16:33.729Z,8.82
2023-03-08T20:19:03.404Z,8.20
2023-03-08T20:21:32.628Z,7.45
2023-03-08T20:24:02.491Z,8.32
2023-03-08T20:26:32.983Z,8.27
2023-03-08T20:29:01.666Z,9.63
2023-03-08T20:31:33.381Z,7.82
2023-03-08T20:34:03.100Z,9.57
2023-03-08T20:36:31.399Z,8.48
2023-03-08T20:39:02.141Z,8.10
2023-03-08T20:41:31.025Z,7.85
2023-03-08T20:43:59.342Z,9.45
2023-03-08T20:46:31.157Z,10.70
2023-03-08T20:48:59.716Z,8.75
2023-03-08T20:51:29.332Z,10.63
2023-03-08T20:53:58.256Z,8.88
2023-03-08T20:56:27.187Z,7.65
2023-03-08T20:59:00.429Z,10.48
2023-03-08T21:01:31.746Z,9.18
2023-03-08T21:04:00.182Z,9.00
2023-03-08T21:06:32.256Z,9.95
2023-03-08T21:09:00.913Z,8.18
2023-03-08T21:11:29.963Z,8.45
2023-03-08T21:13:58.335Z,8.27
2023-03-08T21:16:28.388Z,7.88
2023-03-08T21:18:58.142Z,8.15
2023-03-08T21:21:30.483Z,7.03
2023-03-08T21:24:01.917Z,7.28
2023-03-08T21:26:31.293Z,8.60
2023-03-08T21:29:02.193Z,8.40
2023-03-08T21:31:31.516Z,10.63
2023-03-08T21:34:01.994Z,8.95
2023-03-08T21:36:30.299Z,7.78
2023-03-08T21:39:00.860Z,8.35
2023-03-08T21:41:32.518Z,10.27
2023-03-08T21:44:02.686Z,8.55
2023-03-08T21:46:32.071Z,6.93
2023-03-08T21:49:00.393Z,7.90
2023-03-08T21:51:28.744Z,9.07
2023-03-08T21:53:59.530Z,6.72
2023-03-08T21:56:28.270Z,7.20
2023-03-08T21:58:57.073Z,8.18
2023-03-08T22:01:27.732Z,6.28
2023-03-08T22:03:56.774Z,8.77
2023-03-08T22:06:25.926Z,6.10
2023-03-08T22:08:54.887Z,6.65
2023-03-08T22:11:25.597Z,6.38
2023-03-08T22:13:57.038Z,7.38
2023-03-08T22:16:26.264Z,7.22
2023-03-08T22:18:55.503Z,8.25
2023-03-08T22:21:24.204Z,6.57
2023-03-08T22:23:53.159Z,8.18
2023-03-08T22:26:22.420Z,6.68
2023-03-08T22:28:54.015Z,7.15
2023-03-08T22:31:24.238Z,7.10
2023-03-08T22:33:52.791Z,7.60
2023-03-08T22:36:22.373Z,6.30
2023-03-08T22:38:51.036Z,7.15
2023-03-08T22:41:22.283Z,6.18
2023-03-08T22:43:52.935Z,6.05
2023-03-08T22:46:22.973Z,6.88
2023-03-08T22:48:52.980Z,5.45
2023-03-08T22:51:23.167Z,5.63
2023-03-08T22:53:52.001Z,5.32
2023-03-08T22:56:22.228Z,6.55
2023-03-08T22:58:52.227Z,5.53
2023-03-08T23:01:22.534Z,6.22
2023-03-08T23:03:51.792Z,5.20
2023-03-08T23:06:20.361Z,6.78
2023-03-08T23:08:49.239Z,6.25
2023-03-08T23:11:17.928Z,7.80
2023-03-08T23:13:46.216Z,6.45
2023-03-08T23:16:17.119Z,6.35
2023-03-08T23:18:48.399Z,6.15
2023-03-08T23:21:18.713Z,6.32
2023-03-08T23:23:47.716Z,6.80
2023-03-08T23:26:18.971Z,7.60
2023-03-08T23:28:47.200Z,5.20
2023-03-08T23:31:19.062Z,6.22
2023-03-08T23:33:48.167Z,6.78
2023-03-08T23:36:17.965Z,6.30
2023-03-08T23:38:46.562Z,7.10
2023-03-08T23:41:15.541Z,5.95
2023-03-08T23:43:44.866Z,7.25
2023-03-08T23:46:16.194Z,7.00
2023-03-08T23:48:47.893Z,6.75
2023-03-08T23:51:18.735Z,7.93
2023-03-08T23:53:49.341Z,7.03
2023-03-08T23:56:26.623Z,7.65
2023-03-08T23:58:56.542Z,7.20
